createdAt,value
2023-05-12T00:00:15.190Z,4.80
2023-05-12T00:02:44.613Z,5.35
2023-05-12T00:05:11.529Z,6.60
2023-05-12T00:07:38.459Z,4.53
2023-05-12T00:10:05.714Z,4.18
2023-05-12T00:12:32.690Z,4.20
2023-05-12T00:14:59.524Z,4.90
2023-05-12T00:17:28.026Z,4.90
2023-05-12T00:19:55.144Z,3.90
2023-05-12T00:22:22.037Z,4.57
2023-05-12T00:24:48.852Z,4.07
2023-05-12T00:27:15.829Z,4.00
2023-05-12T00:29:42.714Z,6.43
2023-05-12T00:32:09.529Z,4.70
2023-05-12T00:34:36.542Z,4.15
2023-05-12T00:37:03.790Z,5.13
2023-05-12T00:39:30.669Z,4.63
2023-05-12T00:41:59.051Z,6.88
2023-05-12T00:44:26.097Z,4.63
2023-05-12T00:46:53.191Z,8.73
2023-05-12T00:49:21.287Z,7.18
2023-05-12T00:51:48.212Z,5.50
2023-05-12T00:54:16.060Z,6.35
2023-05-12T00:56:42.974Z,6.15
2023-05-12T00:59:10.294Z,5.95
2023-05-12T01:01:40.645Z,7.63
2023-05-12T01:04:08.422Z,5.50
2023-05-12T01:06:48.033Z,8.60
2023-05-12T01:09:16.465Z,5.85
2023-05-12T01:11:44.735Z,7.15
2023-05-12T01:14:11.975Z,6.90
2023-05-12T01:16:44.986Z,7.38
2023-05-12T01:19:41.166Z,9.50
2023-05-12T01:22:12.845Z,6.80
2023-05-12T01:24:48.578Z,7.05
2023-05-12T01:27:17.456Z,6.90
2023-05-12T01:29:46.977Z,8.10
2023-05-12T01:32:16.264Z,8.52
2023-05-12T01:34:43.308Z,9.68
2023-05-12T01:37:12.657Z,9.85
2023-05-12T01:39:40.601Z,8.85
2023-05-12T01:42:10.061Z,8.48
2023-05-12T01:44:37.053Z,10.50
2023-05-12T01:47:04.265Z,10.02
2023-05-12T01:49:33.309Z,8.45
2023-05-12T01:52:00.053Z,8.38
2023-05-12T01:54:30.235Z,13.13
2023-05-12T01:56:57.220Z,11.98
2023-05-12T01:59:25.246Z,13.80
2023-05-12T02:01:53.522Z,12.35
2023-05-12T02:04:27.688Z,12.85
2023-05-12T02:06:55.681Z,13.77
2023-05-12T02:09:22.975Z,9.60
2023-05-12T02:11:50.862Z,11.43
2023-05-12T02:14:17.694Z,10.85
2023-05-12T02:16:44.961Z,10.57
2023-05-12T02:19:12.091Z,14.43
2023-05-12T02:21:39.469Z,11.02
2023-05-12T02:24:06.608Z,11.73
2023-05-12T02:26:34.953Z,12.45
2023-05-12T02:29:01.772Z,13.05
2023-05-12T02:31:29.018Z,9.07
2023-05-12T02:33:56.441Z,11.40
2023-05-12T02:36:23.264Z,8.10
2023-05-12T02:38:50.201Z,7.43
2023-05-12T02:41:17.214Z,6.97
2023-05-12T02:43:44.286Z,6.68
2023-05-12T02:46:11.304Z,9.30
2023-05-12T02:48:38.898Z,8.85
2023-05-12T02:51:05.825Z,9.32
2023-05-12T02:53:32.732Z,11.20
2023-05-12T02:55:59.694Z,7.60
2023-05-12T02:58:26.624Z,10.25
2023-05-12T03:01:03.133Z,9.65
2023-05-12T03:03:34.354Z,16.13
2023-05-12T03:06:01.512Z,16.23
2023-05-12T03:08:28.357Z,16.90
2023-05-12T03:10:55.214Z,17.52
2023-05-12T03:13:22.373Z,21.73
2023-05-12T03:15:49.306Z,20.75
2023-05-12T03:18:16.295Z,19.23
2023-05-12T03:20:43.201Z,15.70
2023-05-12T03:23:10.518Z,18.02
2023-05-12T03:25:37.358Z,15.30
2023-05-12T03:28:04.477Z,15.52
2023-05-12T03:30:33.015Z,19.75
2023-05-12T03:33:00.149Z,14.98
2023-05-12T03:35:27.341Z,17.10
2023-05-12T03:37:54.242Z,27.80
2023-05-12T03:40:21.485Z,23.80
2023-05-12T03:42:48.486Z,26.30
2023-05-12T03:45:18.437Z,37.33
2023-05-12T03:47:45.705Z,38.25
2023-05-12T03:50:13.312Z,35.08
2023-05-12T03:52:41.453Z,38.55
2023-05-12T03:55:09.219Z,49.33
2023-05-12T03:57:37.749Z,39.85
2023-05-12T04:00:05.646Z,33.85
2023-05-12T04:02:40.094Z,37.28
2023-05-12T04:05:09.971Z,40.40
2023-05-12T04:07:36.994Z,34.63
2023-05-12T04:10:04.899Z,26.88
2023-05-12T04:12:32.251Z,24.20
2023-05-12T04:14:59.521Z,40.25
2023-05-12T04:17:26.354Z,43.97
2023-05-12T04:19:53.674Z,53.85
2023-05-12T04:22:21.245Z,42.97
2023-05-12T04:24:49.378Z,39.33
2023-05-12T04:27:16.229Z,42.08
2023-05-12T04:29:43.698Z,38.33
2023-05-12T04:32:11.414Z,38.85
2023-05-12T04:34:38.604Z,39.20
2023-05-12T04:37:05.806Z,41.15
2023-05-12T04:39:32.713Z,40.80
2023-05-12T04:42:02.176Z,36.28
2023-05-12T04:44:31.393Z,39.03
2023-05-12T04:46:58.358Z,43.25
2023-05-12T04:49:25.520Z,39.78
2023-05-12T04:51:52.417Z,39.90
2023-05-12T04:54:19.367Z,37.38
2023-05-12T04:56:49.403Z,40.45
2023-05-12T04:59:16.417Z,43.20
2023-05-12T05:01:44.662Z,41.17
2023-05-12T05:04:11.819Z,38.50
2023-05-12T05:06:39.294Z,40.20
2023-05-12T05:09:06.429Z,38.22
2023-05-12T05:11:33.358Z,35.85
2023-05-12T05:14:00.203Z,33.42
2023-05-12T05:16:28.260Z,35.03
2023-05-12T05:18:58.176Z,33.42
2023-05-12T05:21:26.261Z,31.63
2023-05-12T05:23:53.254Z,28.38
2023-05-12T05:26:22.187Z,24.20
2023-05-12T05:28:50.516Z,23.10
2023-05-12T05:31:17.676Z,22.40
2023-05-12T05:33:44.941Z,18.83
2023-05-12T05:36:11.968Z,19.00
2023-05-12T05:38:39.132Z,20.27
2023-05-12T05:41:06.677Z,19.92
2023-05-12T05:43:33.874Z,19.05
2023-05-12T05:46:01.394Z,20.48
2023-05-12T05:48:28.389Z,20.73
2023-05-12T05:50:55.511Z,18.80
2023-05-12T05:53:24.044Z,19.67
2023-05-12T05:55:51.808Z,16.10
2023-05-12T05:58:18.676Z,16.60
2023-05-12T06:00:46.575Z,18.10
2023-05-12T06:03:13.653Z,17.55
2023-05-12T06:05:43.076Z,19.10
2023-05-12T06:08:13.305Z,18.92
2023-05-12T06:10:41.036Z,18.67
2023-05-12T06:13:07.893Z,21.10
2023-05-12T06:15:34.773Z,17.42
2023-05-12T06:18:01.707Z,17.70
2023-05-12T06:20:28.721Z,16.05
2023-05-12T06:22:55.748Z,16.17
2023-05-12T06:25:22.711Z,14.98
2023-05-12T06:27:52.722Z,13.27
2023-05-12T06:30:19.554Z,13.75
2023-05-12T06:32:46.703Z,14.20
2023-05-12T06:35:13.509Z,15.23
2023-05-12T06:37:40.319Z,13.13
2023-05-12T06:40:07.969Z,13.80
2023-05-12T06:42:34.725Z,12.18
2023-05-12T06:45:09.458Z,11.85
2023-05-12T06:47:36.260Z,14.02
2023-05-12T06:50:03.341Z,13.07
2023-05-12T06:52:30.102Z,15.57
2023-05-12T06:54:56.935Z,13.45
2023-05-12T06:57:23.955Z,13.40
2023-05-12T06:59:50.776Z,11.93
2023-05-12T07:02:17.760Z,11.68
2023-05-12T07:04:44.555Z,13.00
2023-05-12T07:07:11.390Z,10.10
2023-05-12T07:09:40.539Z,12.93
2023-05-12T07:12:07.690Z,11.35
2023-05-12T07:14:34.476Z,10.63
2023-05-12T07:17:01.241Z,9.77
2023-05-12T07:19:28.050Z,9.15
2023-05-12T07:21:54.858Z,9.20
2023-05-12T07:24:21.618Z,10.38
2023-05-12T07:26:48.389Z,10.85
2023-05-12T07:29:15.106Z,9.85
2023-05-12T07:31:42.240Z,8.07
2023-05-12T07:34:09.062Z,7.72
2023-05-12T07:36:35.838Z,7.35
2023-05-12T07:39:02.634Z,6.75
2023-05-12T07:41:29.571Z,7.53
2023-05-12T07:43:56.343Z,7.43
2023-05-12T07:46:23.197Z,10.50
2023-05-12T07:48:50.699Z,7.28
2023-05-12T07:51:17.612Z,7.95
2023-05-12T07:53:44.935Z,7.28
2023-05-12T07:56:11.725Z,6.75
2023-05-12T07:58:38.496Z,7.38
2023-05-12T08:01:06.884Z,5.70
2023-05-12T08:03:34.934Z,5.57
2023-05-12T08:06:03.492Z,5.40
2023-05-12T08:08:30.337Z,6.10
2023-05-12T08:10:57.139Z,6.32
2023-05-12T08:13:23.949Z,6.22
2023-05-12T08:15:51.141Z,6.10
2023-05-12T08:18:18.106Z,5.50
2023-05-12T08:20:45.446Z,6.32
2023-05-12T08:23:12.412Z,5.63
2023-05-12T08:25:40.877Z,4.10
2023-05-12T08:28:07.717Z,4.90
2023-05-12T08:30:34.524Z,4.60
2023-05-12T08:33:03.528Z,4.80
2023-05-12T08:35:30.682Z,5.25
2023-05-12T08:37:58.149Z,3.70
2023-05-12T08:40:26.642Z,4.70
2023-05-12T08:43:23.331Z,5.07
2023-05-12T08:45:50.642Z,4.65
2023-05-12T08:48:19.772Z,5.32
2023-05-12T08:50:49.943Z,4.18
2023-05-12T08:53:19.174Z,3.35
2023-05-12T08:56:01.159Z,3.47
2023-05-12T08:58:41.582Z,5.60
2023-05-12T09:01:11.081Z,4.10
2023-05-12T09:03:37.970Z,5.55
2023-05-12T09:06:06.697Z,4.25
2023-05-12T09:08:35.101Z,7.60
2023-05-12T09:11:02.546Z,3.53
2023-05-12T09:13:35.160Z,3.60
2023-05-12T09:16:02.782Z,3.67
2023-05-12T09:18:53.385Z,1.85
2023-05-12T09:21:20.824Z,2.72
2023-05-12T09:23:54.209Z,2.97
2023-05-12T09:26:22.758Z,2.22
2023-05-12T09:28:52.051Z,2.75
2023-05-12T09:31:22.948Z,2.70
2023-05-12T09:33:51.469Z,3.53
2023-05-12T09:36:23.714Z,3.35
2023-05-12T09:39:07.157Z,2.33
2023-05-12T09:41:37.717Z,2.50
2023-05-12T09:44:05.638Z,2.38
2023-05-12T09:46:32.936Z,3.47
2023-05-12T09:48:59.968Z,4.32
2023-05-12T09:51:27.551Z,2.63
2023-05-12T09:53:54.321Z,1.98
2023-05-12T09:56:21.383Z,2.15
2023-05-12T09:58:50.095Z,3.10
2023-05-12T10:01:23.309Z,2.63
2023-05-12T10:03:55.799Z,2.42
2023-05-12T10:06:36.533Z,2.13
2023-05-12T10:09:20.515Z,3.55
2023-05-12T10:11:51.960Z,3.60
2023-05-12T10:14:22.550Z,4.15
2023-05-12T10:16:50.035Z,3.53
2023-05-12T10:19:18.772Z,2.63
2023-05-12T10:21:47.199Z,2.78
2023-05-12T10:24:17.585Z,2.65
2023-05-12T10:26:44.852Z,2.97
2023-05-12T10:29:13.082Z,2.67
2023-05-12T10:31:40.413Z,3.22
2023-05-12T10:34:07.501Z,2.33
2023-05-12T10:36:49.669Z,2.42
2023-05-12T10:39:16.890Z,1.98
2023-05-12T10:41:43.849Z,4.22
2023-05-12T10:44:10.997Z,1.98
2023-05-12T10:46:38.854Z,2.35
2023-05-12T10:49:10.623Z,2.20
2023-05-12T10:51:37.801Z,2.72
2023-05-12T10:54:06.783Z,2.10
2023-05-12T10:56:40.332Z,2.35
2023-05-12T10:59:09.530Z,3.75
2023-05-12T11:01:37.640Z,3.08
2023-05-12T11:04:16.784Z,2.35
2023-05-12T11:06:45.250Z,1.98
2023-05-12T11:09:13.607Z,2.25
2023-05-12T11:11:40.832Z,1.95
2023-05-12T11:14:09.531Z,2.05
2023-05-12T11:16:43.296Z,2.17
2023-05-12T11:19:10.634Z,2.63
2023-05-12T11:21:38.529Z,1.40
2023-05-12T11:24:05.521Z,2.75
2023-05-12T11:26:33.819Z,2.42
2023-05-12T11:29:03.501Z,1.63
2023-05-12T11:31:30.609Z,1.70
2023-05-12T11:34:12.710Z,2.05
2023-05-12T11:36:44.411Z,1.67
2023-05-12T11:39:18.584Z,1.77
2023-05-12T11:41:45.999Z,2.25
2023-05-12T11:44:18.058Z,1.45
2023-05-12T11:47:11.792Z,1.02
2023-05-12T11:49:50.827Z,2.83
2023-05-12T11:52:19.743Z,1.27
2023-05-12T11:54:53.391Z,2.35
2023-05-12T11:57:36.055Z,1.10
2023-05-12T12:00:07.935Z,1.15
2023-05-12T12:02:37.493Z,2.38
2023-05-12T12:05:07.774Z,3.00
2023-05-12T12:07:36.813Z,1.63
2023-05-12T12:10:17.800Z,2.58
2023-05-12T12:12:46.007Z,2.55
2023-05-12T12:15:13.181Z,2.35
2023-05-12T12:17:40.598Z,2.92
2023-05-12T12:20:09.249Z,7.53
2023-05-12T12:22:36.667Z,3.50
2023-05-12T12:25:04.080Z,3.33
2023-05-12T12:27:31.105Z,2.65
2023-05-12T12:29:57.996Z,3.13
2023-05-12T12:32:25.019Z,2.95
2023-05-12T12:34:52.744Z,2.83
2023-05-12T12:37:19.715Z,3.28
2023-05-12T12:39:48.024Z,3.45
2023-05-12T12:42:15.647Z,3.30
2023-05-12T12:44:42.937Z,1.83
2023-05-12T12:47:09.997Z,2.03
2023-05-12T12:49:36.971Z,2.00
2023-05-12T12:52:04.159Z,1.90
2023-05-12T12:54:33.065Z,1.60
2023-05-12T12:56:59.816Z,1.70
2023-05-12T12:59:27.145Z,2.08
2023-05-12T13:01:54.066Z,2.40
2023-05-12T13:04:23.051Z,1.42
2023-05-12T13:06:50.009Z,2.10
2023-05-12T13:09:19.791Z,3.10
2023-05-12T13:11:50.435Z,1.70
2023-05-12T13:14:17.250Z,1.67
2023-05-12T13:16:47.231Z,1.60
2023-05-12T13:19:14.327Z,2.55
2023-05-12T13:21:42.082Z,2.00
2023-05-12T13:24:08.948Z,1.80
2023-05-12T13:26:35.886Z,1.08
2023-05-12T13:29:02.778Z,0.57
2023-05-12T13:31:29.971Z,0.77
2023-05-12T13:33:56.860Z,1.08
2023-05-12T13:36:23.750Z,0.88
2023-05-12T13:38:50.887Z,3.03
2023-05-12T13:41:17.600Z,0.98
2023-05-12T13:43:44.982Z,1.25
2023-05-12T13:46:11.765Z,1.25
2023-05-12T13:48:38.576Z,4.28
2023-05-12T13:51:05.648Z,1.63
2023-05-12T13:53:32.458Z,2.30
2023-05-12T13:56:16.019Z,2.10
2023-05-12T13:58:43.232Z,3.03
2023-05-12T14:01:10.669Z,4.05
2023-05-12T14:03:37.787Z,6.70
2023-05-12T14:06:05.425Z,4.60
2023-05-12T14:08:32.205Z,4.70
2023-05-12T14:10:59.605Z,4.47
2023-05-12T14:13:26.355Z,3.28
2023-05-12T14:15:53.980Z,4.05
2023-05-12T14:18:21.475Z,4.07
2023-05-12T14:20:48.974Z,4.70
2023-05-12T14:23:16.512Z,3.97
2023-05-12T14:25:43.371Z,4.15
2023-05-12T14:28:10.568Z,3.33
2023-05-12T14:30:38.775Z,3.20
2023-05-12T14:33:05.726Z,3.40
2023-05-12T14:35:32.625Z,3.25
2023-05-12T14:37:59.457Z,2.25
2023-05-12T14:40:27.320Z,2.35
2023-05-12T14:42:55.451Z,2.33
2023-05-12T14:45:23.031Z,6.15
2023-05-12T14:47:50.169Z,2.70
2023-05-12T14:50:18.314Z,2.20
2023-05-12T14:52:45.835Z,2.78
2023-05-12T14:55:13.749Z,0.73
2023-05-12T14:57:42.010Z,0.98
2023-05-12T15:00:13.525Z,0.77
2023-05-12T15:02:41.680Z,1.23
2023-05-12T15:05:10.374Z,1.75
2023-05-12T15:07:37.654Z,1.60
2023-05-12T15:10:05.716Z,1.10
2023-05-12T15:12:33.388Z,4.95
2023-05-12T15:15:02.348Z,1.20
2023-05-12T15:17:29.924Z,1.33
2023-05-12T15:19:56.920Z,1.05
2023-05-12T15:22:23.780Z,2.97
2023-05-12T15:24:50.916Z,1.25
2023-05-12T15:27:17.811Z,1.40
2023-05-12T15:29:44.604Z,1.02
2023-05-12T15:32:11.392Z,1.10
2023-05-12T15:34:39.168Z,1.50
2023-05-12T15:37:06.592Z,1.20
2023-05-12T15:39:33.415Z,1.38
2023-05-12T15:42:01.086Z,1.15
2023-05-12T15:44:28.818Z,1.20
2023-05-12T15:46:55.914Z,2.22
2023-05-12T15:49:22.844Z,1.30
2023-05-12T15:51:49.701Z,1.40
2023-05-12T15:54:16.913Z,2.92
2023-05-12T15:56:43.786Z,6.55
2023-05-12T15:59:12.092Z,2.13
2023-05-12T16:01:39.210Z,4.78
2023-05-12T16:04:07.075Z,2.25
2023-05-12T16:06:34.176Z,1.95
2023-05-12T16:09:01.127Z,3.90
2023-05-12T16:11:28.382Z,2.50
2023-05-12T16:13:56.959Z,2.22
2023-05-12T16:16:24.010Z,1.60
2023-05-12T16:18:51.094Z,2.58
2023-05-12T16:21:17.945Z,2.70
2023-05-12T16:23:44.672Z,2.95
2023-05-12T16:26:12.175Z,3.63
2023-05-12T16:28:39.073Z,4.38
2023-05-12T16:31:05.928Z,3.92
2023-05-12T16:33:32.800Z,2.72
2023-05-12T16:35:59.557Z,3.55
2023-05-12T16:38:26.738Z,3.97
2023-05-12T16:40:53.592Z,4.53
2023-05-12T16:43:20.440Z,4.13
2023-05-12T16:45:47.528Z,3.03
2023-05-12T16:48:14.429Z,3.00
2023-05-12T16:50:41.239Z,2.17
2023-05-12T16:53:08.107Z,1.77
2023-05-12T16:55:34.963Z,2.20
2023-05-12T16:58:01.850Z,2.28
2023-05-12T17:00:28.764Z,4.03
2023-05-12T17:02:55.786Z,2.10
2023-05-12T17:05:22.951Z,3.83
2023-05-12T17:07:49.913Z,2.00
2023-05-12T17:10:16.682Z,2.47
2023-05-12T17:12:43.578Z,5.78
2023-05-12T17:15:11.436Z,2.33
2023-05-12T17:17:38.443Z,3.75
2023-05-12T17:20:06.141Z,6.05
2023-05-12T17:22:34.959Z,4.63
2023-05-12T17:25:01.766Z,1.88
2023-05-12T17:27:31.233Z,2.65
2023-05-12T17:29:59.750Z,2.83
2023-05-12T17:32:27.142Z,4.25
2023-05-12T17:34:54.069Z,2.45
2023-05-12T17:37:20.893Z,3.05
2023-05-12T17:39:47.738Z,1.90
2023-05-12T17:42:14.985Z,3.17
2023-05-12T17:44:41.971Z,1.45
2023-05-12T17:47:14.047Z,3.40
2023-05-12T17:49:41.436Z,1.50
2023-05-12T17:52:08.489Z,2.30
2023-05-12T17:54:35.415Z,4.38
2023-05-12T17:57:02.378Z,2.85
2023-05-12T17:59:29.199Z,5.70
2023-05-12T18:01:56.092Z,2.42
2023-05-12T18:04:24.124Z,3.63
2023-05-12T18:06:54.988Z,2.53
2023-05-12T18:09:23.484Z,1.90
2023-05-12T18:11:50.273Z,3.10
2023-05-12T18:14:17.932Z,1.95
2023-05-12T18:16:45.092Z,3.40
2023-05-12T18:19:11.868Z,3.95
2023-05-12T18:21:38.731Z,3.85
2023-05-12T18:24:05.710Z,2.50
2023-05-12T18:26:32.655Z,5.25
2023-05-12T18:28:59.544Z,3.28
2023-05-12T18:31:26.918Z,2.75
2023-05-12T18:33:53.868Z,2.20
2023-05-12T18:36:20.825Z,4.50
2023-05-12T18:38:48.067Z,4.82
2023-05-12T18:41:15.292Z,4.10
2023-05-12T18:43:44.216Z,3.97
2023-05-12T18:46:11.715Z,4.63
2023-05-12T18:48:39.138Z,4.93
2023-05-12T18:51:06.518Z,4.13
2023-05-12T18:53:33.358Z,5.80
2023-05-12T18:56:00.186Z,4.20
2023-05-12T18:58:27.093Z,5.15
2023-05-12T19:00:54.329Z,5.63
2023-05-12T19:03:21.402Z,5.97
2023-05-12T19:05:49.111Z,7.05
2023-05-12T19:08:16.727Z,5.13
2023-05-12T19:10:43.860Z,4.97
2023-05-12T19:13:10.735Z,4.95
2023-05-12T19:15:37.731Z,7.85
2023-05-12T19:18:04.682Z,7.22
2023-05-12T19:20:31.884Z,5.75
2023-05-12T19:23:00.151Z,6.28
2023-05-12T19:25:27.465Z,8.35
2023-05-12T19:27:54.614Z,6.47
2023-05-12T19:30:21.452Z,5.93
2023-05-12T19:32:50.075Z,9.43
2023-05-12T19:35:17.500Z,7.10
2023-05-12T19:37:44.865Z,7.60
2023-05-12T19:40:11.932Z,7.15
2023-05-12T19:42:39.060Z,7.28
2023-05-12T19:45:06.570Z,8.02
2023-05-12T19:47:33.746Z,8.05
2023-05-12T19:50:01.213Z,9.32
2023-05-12T19:52:30.617Z,23.17
2023-05-12T19:54:57.988Z,15.52
2023-05-12T19:57:24.835Z,8.38
2023-05-12T19:59:51.799Z,7.72
2023-05-12T20:02:18.680Z,9.07
2023-05-12T20:04:45.768Z,8.63
2023-05-12T20:07:13.807Z,8.23
2023-05-12T20:09:40.783Z,9.10
2023-05-12T20:12:08.191Z,10.90
2023-05-12T20:14:38.534Z,9.45
2023-05-12T20:17:07.905Z,10.25
2023-05-12T20:19:35.560Z,8.35
2023-05-12T20:22:02.460Z,8.38
2023-05-12T20:24:29.756Z,9.32
2023-05-12T20:26:56.829Z,9.45
2023-05-12T20:29:26.012Z,8.63
2023-05-12T20:31:52.988Z,10.00
2023-05-12T20:34:20.046Z,11.60
2023-05-12T20:36:47.261Z,10.65
2023-05-12T20:39:15.182Z,11.00
2023-05-12T20:41:43.448Z,10.27
2023-05-12T20:44:10.890Z,9.27
2023-05-12T20:46:38.820Z,9.32
2023-05-12T20:49:06.277Z,9.80
2023-05-12T20:51:33.527Z,9.82
2023-05-12T20:54:00.463Z,10.15
2023-05-12T20:56:27.422Z,10.98
2023-05-12T20:58:54.612Z,10.25
2023-05-12T21:01:21.495Z,10.32
2023-05-12T21:03:48.459Z,9.85
2023-05-12T21:06:15.529Z,14.18
2023-05-12T21:08:42.430Z,11.25
2023-05-12T21:11:17.497Z,10.95
2023-05-12T21:13:46.998Z,11.32
2023-05-12T21:16:14.671Z,11.05
2023-05-12T21:18:41.829Z,11.00
2023-05-12T21:21:08.794Z,10.52
2023-05-12T21:23:38.849Z,9.88
2023-05-12T21:26:05.867Z,11.18
2023-05-12T21:28:32.783Z,9.88
2023-05-12T21:30:59.666Z,9.88
2023-05-12T21:33:26.575Z,9.25
2023-05-12T21:35:53.647Z,9.43
2023-05-12T21:38:20.930Z,9.30
2023-05-12T21:40:56.286Z,10.35
2023-05-12T21:43:23.325Z,8.32
2023-05-12T21:45:50.260Z,9.13
2023-05-12T21:48:18.162Z,8.75
2023-05-12T21:50:44.966Z,9.25
2023-05-12T21:53:12.097Z,9.50
2023-05-12T21:55:40.756Z,9.98
2023-05-12T21:58:07.595Z,10.23
2023-05-12T22:00:34.488Z,10.95
2023-05-12T22:03:01.469Z,9.68
2023-05-12T22:05:29.613Z,9.70
2023-05-12T22:07:57.075Z,11.20
2023-05-12T22:10:23.869Z,9.85
2023-05-12T22:12:50.746Z,10.30
2023-05-12T22:15:18.510Z,10.13
2023-05-12T22:17:49.409Z,9.45
2023-05-12T22:20:18.620Z,11.98
2023-05-12T22:22:46.125Z,9.65
2023-05-12T22:25:12.838Z,10.25
2023-05-12T22:27:39.791Z,9.90
2023-05-12T22:30:07.657Z,9.77
2023-05-12T22:32:34.616Z,8.63
2023-05-12T22:35:01.527Z,9.82
2023-05-12T22:37:28.916Z,11.15
2023-05-12T22:39:55.703Z,10.00
2023-05-12T22:42:22.551Z,9.77
2023-05-12T22:44:50.426Z,9.80
2023-05-12T22:47:17.344Z,12.40
2023-05-12T22:49:44.379Z,9.60
2023-05-12T22:52:11.417Z,12.80
2023-05-12T22:54:38.380Z,10.70
2023-05-12T22:57:05.318Z,9.82
2023-05-12T22:59:32.485Z,12.32
2023-05-12T23:01:59.359Z,12.35
2023-05-12T23:04:26.555Z,9.65
2023-05-12T23:06:53.561Z,10.98
2023-05-12T23:09:20.651Z,9.43
2023-05-12T23:11:47.442Z,9.48
2023-05-12T23:14:14.665Z,8.32
2023-05-12T23:16:41.515Z,9.23
2023-05-12T23:19:08.572Z,8.02
2023-05-12T23:21:35.637Z,10.93
2023-05-12T23:24:03.062Z,9.00
2023-05-12T23:26:29.837Z,10.25
2023-05-12T23:28:56.639Z,9.07
2023-05-12T23:31:23.526Z,9.10
2023-05-12T23:33:50.425Z,9.70
2023-05-12T23:36:17.389Z,9.85
2023-05-12T23:38:44.450Z,9.50
2023-05-12T23:41:11.273Z,11.90
2023-05-12T23:43:38.977Z,11.05
2023-05-12T23:46:06.011Z,9.43
2023-05-12T23:48:33.230Z,9.88
2023-05-12T23:51:00.120Z,12.13
2023-05-12T23:53:26.908Z,10.50
2023-05-12T23:55:53.760Z,9.25
2023-05-12T23:58:20.526Z,7.93
